sensor_id;sensor_type;location;lat;lon;timestamp;pressure;altitude;pressure_sealevel;temperature;humidity
7309;BME280;3695;53.330;9.876;2023-03-20T00:00:15;100556.34;;;8.67;100.00
7309;BME280;3695;53.330;9.876;2023-03-20T00:02:42;100566.34;;;8.60;100.00
7309;BME280;3695;53.330;9.876;2023-03-20T00:05:17;100603.94;;;8.61;100.00
7309;BME280;3695;53.330;9.876;2023-03-20T00:07:45;100624.31;;;8.57;100.00
7309;BME280;3695;53.330;9.876;2023-03-20T00:10:14;100636.78;;;8.58;100.00
7309;BME280;3695;53.330;9.876;2023-03-20T00:12:43;100648.00;;;8.62;100.00
7309;BME280;3695;53.330;9.876;2023-03-20T00:15:31;100690.38;;;8.61;100.00
7309;BME280;3695;53.330;9.876;2023-03-20T00:17:58;100725.09;;;8.58;100.00
7309;BME280;3695;53.330;9.876;2023-03-20T00:20:25;100766.38;;;8.45;100.00
7309;BME280;3695;53.330;9.876;2023-03-20T00:22:52;100794.63;;;8.42;100.00
7309;BME280;3695;53.330;9.876;2023-03-20T00:25:21;100822.53;;;8.56;100.00
7309;BME280;3695;53.330;9.876;2023-03-20T00:27:50;100855.94;;;8.48;100.00
7309;BME280;3695;53.330;9.876;2023-03-20T00:30:25;100882.53;;;8.45;100.00
7309;BME280;3695;53.330;9.876;2023-03-20T00:32:53;100903.38;;;8.58;100.00
7309;BME280;3695;53.330;9.876;2023-03-20T00:35:22;100927.28;;;8.61;100.00
7309;BME280;3695;53.330;9.876;2023-03-20T00:37:50;101004.25;;;8.43;100.00
7309;BME280;3695;53.330;9.876;2023-03-20T00:40:18;101046.69;;;8.49;100.00
7309;BME280;3695;53.330;9.876;2023-03-20T00:42:46;101092.38;;;8.44;100.00
7309;BME280;3695;53.330;9.876;2023-03-20T00:45:17;101113.06;;;8.59;100.00
7309;BME280;3695;53.330;9.876;2023-03-20T00:47:47;101124.47;;;8.54;100.00
7309;BME280;3695;53.330;9.876;2023-03-20T00:50:17;101154.03;;;8.62;100.00
7309;BME280;3695;53.330;9.876;2023-03-20T00:52:45;101127.66;;;8.64;100.00
7309;BME280;3695;53.330;9.876;2023-03-20T00:55:11;101102.53;;;8.70;100.00
7309;BME280;3695;53.330;9.876;2023-03-20T00:57:42;101079.16;;;8.56;100.00
7309;BME280;3695;53.330;9.876;2023-03-20T01:00:20;101136.22;;;8.46;100.00
7309;BME280;3695;53.330;9.876;2023-03-20T01:02:49;101127.78;;;8.56;100.00
7309;BME280;3695;53.330;9.876;2023-03-20T01:05:16;101121.25;;;8.72;100.00
7309;BME280;3695;53.330;9.876;2023-03-20T01:07:42;101119.72;;;8.63;100.00
7309;BME280;3695;53.330;9.876;2023-03-20T01:10:10;101122.78;;;8.53;100.00
7309;BME280;3695;53.330;9.876;2023-03-20T01:12:37;101139.47;;;8.63;100.00
7309;BME280;3695;53.330;9.876;2023-03-20T01:15:15;101142.81;;;8.65;100.00
7309;BME280;3695;53.330;9.876;2023-03-20T01:17:43;101151.97;;;8.64;100.00
7309;BME280;3695;53.330;9.876;2023-03-20T01:20:14;101161.75;;;8.65;100.00
7309;BME280;3695;53.330;9.876;2023-03-20T01:22:41;101171.31;;;8.68;100.00
7309;BME280;3695;53.330;9.876;2023-03-20T01:25:08;101219.25;;;8.59;100.00
7309;BME280;3695;53.330;9.876;2023-03-20T01:27:35;101237.53;;;8.57;100.00
7309;BME280;3695;53.330;9.876;2023-03-20T01:30:02;101245.50;;;8.65;100.00
7309;BME280;3695;53.330;9.876;2023-03-20T01:32:29;101258.38;;;8.63;100.00
7309;BME280;3695;53.330;9.876;2023-03-20T01:34:57;101283.72;;;8.62;100.00
7309;BME280;3695;53.330;9.876;2023-03-20T01:37:24;101272.19;;;8.75;100.00
7309;BME280;3695;53.330;9.876;2023-03-20T01:39:52;101288.28;;;8.62;100.00
7309;BME280;3695;53.330;9.876;2023-03-20T01:42:18;101314.41;;;8.55;100.00
7309;BME280;3695;53.330;9.876;2023-03-20T01:44:45;101341.56;;;8.68;100.00
7309;BME280;3695;53.330;9.876;2023-03-20T01:47:16;101344.00;;;8.63;100.00
7309;BME280;3695;53.330;9.876;2023-03-20T01:50:18;101392.88;;;8.68;100.00
7309;BME280;3695;53.330;9.876;2023-03-20T01:52:47;101402.16;;;8.59;100.00
7309;BME280;3695;53.330;9.876;2023-03-20T01:55:15;101419.16;;;8.74;100.00
7309;BME280;3695;53.330;9.876;2023-03-20T01:57:42;101423.38;;;8.62;100.00
7309;BME280;3695;53.330;9.876;2023-03-20T02:00:10;101453.09;;;8.62;100.00
7309;BME280;3695;53.330;9.876;2023-03-20T02:02:39;101469.97;;;8.64;100.00
7309;BME280;3695;53.330;9.876;2023-03-20T02:05:08;101479.25;;;8.76;100.00
7309;BME280;3695;53.330;9.876;2023-03-20T02:07:37;101485.41;;;8.70;100.00
7309;BME280;3695;53.330;9.876;2023-03-20T02:10:08;101573.47;;;8.64;100.00
7309;BME280;3695;53.330;9.876;2023-03-20T02:12:36;101567.16;;;8.72;100.00
7309;BME280;3695;53.330;9.876;2023-03-20T02:15:05;101569.38;;;8.68;100.00
7309;BME280;3695;53.330;9.876;2023-03-20T02:17:32;101577.56;;;8.75;100.00
7309;BME280;3695;53.330;9.876;2023-03-20T02:20:05;101608.25;;;8.67;100.00
7309;BME280;3695;53.330;9.876;2023-03-20T02:23:00;101640.22;;;8.78;100.00
7309;BME280;3695;53.330;9.876;2023-03-20T02:26:09;101640.22;;;8.78;100.00
7309;BME280;3695;53.330;9.876;2023-03-20T02:32:04;101652.88;;;8.78;100.00
7309;BME280;3695;53.330;9.876;2023-03-20T02:35:01;101707.75;;;8.64;100.00
7309;BME280;3695;53.330;9.876;2023-03-20T02:38:02;101756.25;;;8.80;100.00
7309;BME280;3695;53.330;9.876;2023-03-20T02:40:33;101756.22;;;8.65;100.00
7309;BME280;3695;53.330;9.876;2023-03-20T02:43:10;101791.56;;;8.78;100.00
7309;BME280;3695;53.330;9.876;2023-03-20T02:45:42;101819.69;;;8.69;100.00
7309;BME280;3695;53.330;9.876;2023-03-20T02:48:15;101860.94;;;8.63;100.00
7309;BME280;3695;53.330;9.876;2023-03-20T02:50:48;101888.81;;;8.64;100.00
7309;BME280;3695;53.330;9.876;2023-03-20T02:53:28;101933.91;;;8.63;100.00
7309;BME280;3695;53.330;9.876;2023-03-20T02:56:02;101995.19;;;8.71;100.00
7309;BME280;3695;53.330;9.876;2023-03-20T02:58:38;102032.44;;;8.52;100.00
7309;BME280;3695;53.330;9.876;2023-03-20T03:01:10;102111.63;;;8.61;100.00
7309;BME280;3695;53.330;9.876;2023-03-20T03:03:43;102176.47;;;8.69;100.00
7309;BME280;3695;53.330;9.876;2023-03-20T03:06:16;102208.22;;;8.67;100.00
7309;BME280;3695;53.330;9.876;2023-03-20T03:08:49;102265.50;;;8.55;100.00
7309;BME280;3695;53.330;9.876;2023-03-20T03:11:17;102340.66;;;8.59;100.00
7309;BME280;3695;53.330;9.876;2023-03-20T03:13:48;102417.72;;;8.71;100.00
7309;BME280;3695;53.330;9.876;2023-03-20T03:16:19;102426.50;;;8.73;100.00
7309;BME280;3695;53.330;9.876;2023-03-20T03:18:49;102453.34;;;8.67;100.00
7309;BME280;3695;53.330;9.876;2023-03-20T03:21:19;102425.47;;;8.74;100.00
7309;BME280;3695;53.330;9.876;2023-03-20T03:23:48;102402.84;;;8.67;100.00
7309;BME280;3695;53.330;9.876;2023-03-20T03:26:19;102433.59;;;8.74;100.00
7309;BME280;3695;53.330;9.876;2023-03-20T03:28:49;102426.66;;;8.64;100.00
7309;BME280;3695;53.330;9.876;2023-03-20T03:31:18;102425.47;;;8.66;100.00
7309;BME280;3695;53.330;9.876;2023-03-20T03:33:48;102416.84;;;8.63;100.00
7309;BME280;3695;53.330;9.876;2023-03-20T03:36:24;102378.16;;;8.62;100.00
7309;BME280;3695;53.330;9.876;2023-03-20T03:38:58;102333.88;;;8.47;100.00
7309;BME280;3695;53.330;9.876;2023-03-20T03:41:30;102288.31;;;8.60;100.00
7309;BME280;3695;53.330;9.876;2023-03-20T03:44:07;102287.59;;;8.50;100.00
7309;BME280;3695;53.330;9.876;2023-03-20T03:46:40;102278.16;;;8.62;100.00
7309;BME280;3695;53.330;9.876;2023-03-20T03:49:14;102273.41;;;8.40;100.00
7309;BME280;3695;53.330;9.876;2023-03-20T03:51:43;102299.06;;;8.36;100.00
7309;BME280;3695;53.330;9.876;2023-03-20T03:54:16;102287.88;;;8.31;100.00
7309;BME280;3695;53.330;9.876;2023-03-20T03:56:46;102256.16;;;8.33;100.00
7309;BME280;3695;53.330;9.876;2023-03-20T03:59:20;102223.56;;;8.26;100.00
7309;BME280;3695;53.330;9.876;2023-03-20T04:01:49;102193.69;;;8.28;100.00
7309;BME280;3695;53.330;9.876;2023-03-20T04:04:17;102160.59;;;8.17;100.00
7309;BME280;3695;53.330;9.876;2023-03-20T04:06:45;102129.88;;;8.27;100.00
7309;BME280;3695;53.330;9.876;2023-03-20T04:09:13;102086.34;;;8.13;100.00
7309;BME280;3695;53.330;9.876;2023-03-20T04:11:40;102050.56;;;8.11;100.00
7309;BME280;3695;53.330;9.876;2023-03-20T04:14:06;102075.38;;;8.15;100.00
7309;BME280;3695;53.330;9.876;2023-03-20T04:16:33;102062.34;;;8.27;100.00
7309;BME280;3695;53.330;9.876;2023-03-20T04:18:59;102048.84;;;8.27;100.00
7309;BME280;3695;53.330;9.876;2023-03-20T04:21:26;102069.09;;;8.31;100.00
7309;BME280;3695;53.330;9.876;2023-03-20T04:23:52;102071.31;;;8.19;100.00
7309;BME280;3695;53.330;9.876;2023-03-20T04:26:20;102027.25;;;8.18;100.00
7309;BME280;3695;53.330;9.876;2023-03-20T04:28:46;102014.06;;;8.24;100.00
7309;BME280;3695;53.330;9.876;2023-03-20T04:31:13;102014.13;;;8.07;100.00
7309;BME280;3695;53.330;9.876;2023-03-20T04:33:39;101978.66;;;8.18;100.00
7309;BME280;3695;53.330;9.876;2023-03-20T04:36:07;101938.88;;;8.04;100.00
7309;BME280;3695;53.330;9.876;2023-03-20T04:38:33;101929.91;;;8.12;100.00
7309;BME280;3695;53.330;9.876;2023-03-20T04:41:00;101891.75;;;8.15;100.00
7309;BME280;3695;53.330;9.876;2023-03-20T04:43:28;101883.09;;;8.19;100.00
7309;BME280;3695;53.330;9.876;2023-03-20T04:45:54;101907.09;;;8.14;100.00
7309;BME280;3695;53.330;9.876;2023-03-20T04:48:21;101877.34;;;8.23;100.00
7309;BME280;3695;53.330;9.876;2023-03-20T04:50:47;101858.34;;;8.08;100.00
7309;BME280;3695;53.330;9.876;2023-03-20T04:53:15;101849.41;;;8.07;100.00
7309;BME280;3695;53.330;9.876;2023-03-20T04:55:42;101851.22;;;8.15;100.00
7309;BME280;3695;53.330;9.876;2023-03-20T04:58:09;101841.44;;;8.14;100.00
7309;BME280;3695;53.330;9.876;2023-03-20T05:00:37;101871.38;;;8.04;100.00
7309;BME280;3695;53.330;9.876;2023-03-20T05:03:03;102054.97;;;8.04;100.00
7309;BME280;3695;53.330;9.876;2023-03-20T05:05:30;102052.41;;;8.11;100.00
7309;BME280;3695;53.330;9.876;2023-03-20T05:07:57;102080.28;;;8.11;100.00
7309;BME280;3695;53.330;9.876;2023-03-20T05:10:23;102067.78;;;8.10;100.00
7309;BME280;3695;53.330;9.876;2023-03-20T05:12:50;102084.31;;;8.07;100.00
7309;BME280;3695;53.330;9.876;2023-03-20T05:15:16;102048.22;;;8.08;100.00
7309;BME280;3695;53.330;9.876;2023-03-20T05:17:44;102126.16;;;8.11;100.00
7309;BME280;3695;53.330;9.876;2023-03-20T05:20:11;102147.28;;;8.16;100.00
7309;BME280;3695;53.330;9.876;2023-03-20T05:22:38;102156.56;;;8.13;100.00
7309;BME280;3695;53.330;9.876;2023-03-20T05:25:05;102169.34;;;7.95;100.00
7309;BME280;3695;53.330;9.876;2023-03-20T05:27:31;102158.75;;;8.18;100.00
7309;BME280;3695;53.330;9.876;2023-03-20T05:29:58;102154.53;;;8.24;100.00
7309;BME280;3695;53.330;9.876;2023-03-20T05:32:24;102185.53;;;8.03;100.00
7309;BME280;3695;53.330;9.876;2023-03-20T05:34:52;102151.16;;;8.05;100.00
7309;BME280;3695;53.330;9.876;2023-03-20T05:37:18;102186.88;;;7.91;100.00
7309;BME280;3695;53.330;9.876;2023-03-20T05:39:45;102261.19;;;8.11;100.00
7309;BME280;3695;53.330;9.876;2023-03-20T05:42:11;102328.22;;;8.16;100.00
7309;BME280;3695;53.330;9.876;2023-03-20T05:44:38;102338.34;;;8.14;100.00
7309;BME280;3695;53.330;9.876;2023-03-20T05:47:05;102292.88;;;8.01;100.00
7309;BME280;3695;53.330;9.876;2023-03-20T05:49:32;102258.00;;;8.16;100.00
7309;BME280;3695;53.330;9.876;2023-03-20T05:51:59;102290.06;;;8.19;100.00
7309;BME280;3695;53.330;9.876;2023-03-20T05:54:26;102434.72;;;8.13;100.00
7309;BME280;3695;53.330;9.876;2023-03-20T05:56:52;102517.44;;;8.14;100.00
7309;BME280;3695;53.330;9.876;2023-03-20T05:59:18;102605.88;;;8.12;100.00
7309;BME280;3695;53.330;9.876;2023-03-20T06:01:45;102684.56;;;8.17;100.00
7309;BME280;3695;53.330;9.876;2023-03-20T06:04:12;102755.72;;;8.08;100.00
7309;BME280;3695;53.330;9.876;2023-03-20T06:06:38;102777.19;;;8.10;100.00
7309;BME280;3695;53.330;9.876;2023-03-20T06:09:07;102819.72;;;7.98;100.00
7309;BME280;3695;53.330;9.876;2023-03-20T06:11:33;102837.00;;;8.15;100.00
7309;BME280;3695;53.330;9.876;2023-03-20T06:14:00;102887.91;;;8.10;100.00
7309;BME280;3695;53.330;9.876;2023-03-20T06:16:26;102849.72;;;8.05;100.00
7309;BME280;3695;53.330;9.876;2023-03-20T06:18:53;102814.53;;;8.14;100.00
7309;BME280;3695;53.330;9.876;2023-03-20T06:21:19;102790.94;;;8.34;100.00
7309;BME280;3695;53.330;9.876;2023-03-20T06:23:46;102770.00;;;8.18;100.00
7309;BME280;3695;53.330;9.876;2023-03-20T06:26:13;102836.22;;;8.23;100.00
7309;BME280;3695;53.330;9.876;2023-03-20T06:28:40;102845.56;;;8.10;100.00
7309;BME280;3695;53.330;9.876;2023-03-20T06:31:07;102883.22;;;8.30;100.00
7309;BME280;3695;53.330;9.876;2023-03-20T06:33:34;102873.28;;;8.30;100.00
7309;BME280;3695;53.330;9.876;2023-03-20T06:36:01;102892.47;;;8.09;100.00
7309;BME280;3695;53.330;9.876;2023-03-20T06:38:27;102933.94;;;8.18;100.00
7309;BME280;3695;53.330;9.876;2023-03-20T06:40:54;102922.91;;;8.02;100.00
7309;BME280;3695;53.330;9.876;2023-03-20T06:43:22;102928.28;;;8.11;100.00
7309;BME280;3695;53.330;9.876;2023-03-20T06:45:48;102943.88;;;8.17;100.00
7309;BME280;3695;53.330;9.876;2023-03-20T06:48:15;102980.06;;;8.34;100.00
7309;BME280;3695;53.330;9.876;2023-03-20T06:50:46;103021.47;;;8.35;100.00
7309;BME280;3695;53.330;9.876;2023-03-20T06:53:12;103020.47;;;8.36;100.00
7309;BME280;3695;53.330;9.876;2023-03-20T06:55:39;102996.16;;;8.26;100.00
7309;BME280;3695;53.330;9.876;2023-03-20T06:58:05;103020.81;;;8.13;100.00
7309;BME280;3695;53.330;9.876;2023-03-20T07:00:33;102994.41;;;8.07;100.00
7309;BME280;3695;53.330;9.876;2023-03-20T07:02:59;103002.91;;;8.12;100.00
7309;BME280;3695;53.330;9.876;2023-03-20T07:05:26;103027.88;;;8.24;100.00
7309;BME280;3695;53.330;9.876;2023-03-20T07:07:52;103008.47;;;8.01;100.00
7309;BME280;3695;53.330;9.876;2023-03-20T07:10:19;103073.25;;;8.20;100.00
7309;BME280;3695;53.330;9.876;2023-03-20T07:12:45;103025.63;;;8.19;100.00
7309;BME280;3695;53.330;9.876;2023-03-20T07:15:12;103066.53;;;8.34;100.00
7309;BME280;3695;53.330;9.876;2023-03-20T07:17:40;103038.44;;;8.17;100.00
7309;BME280;3695;53.330;9.876;2023-03-20T07:20:07;103098.97;;;8.25;100.00
7309;BME280;3695;53.330;9.876;2023-03-20T07:22:34;103090.97;;;8.33;100.00
7309;BME280;3695;53.330;9.876;2023-03-20T07:25:01;103115.19;;;8.34;100.00
7309;BME280;3695;53.330;9.876;2023-03-20T07:27:28;103121.00;;;8.39;100.00
7309;BME280;3695;53.330;9.876;2023-03-20T07:29:55;103146.28;;;8.48;100.00
7309;BME280;3695;53.330;9.876;2023-03-20T07:32:21;103108.16;;;8.51;100.00
7309;BME280;3695;53.330;9.876;2023-03-20T07:34:49;103079.31;;;8.42;100.00
7309;BME280;3695;53.330;9.876;2023-03-20T07:37:15;103095.06;;;8.56;100.00
7309;BME280;3695;53.330;9.876;2023-03-20T07:39:42;103057.84;;;8.40;100.00
7309;BME280;3695;53.330;9.876;2023-03-20T07:42:08;103148.13;;;8.47;100.00
7309;BME280;3695;53.330;9.876;2023-03-20T07:44:35;103099.63;;;8.46;100.00
7309;BME280;3695;53.330;9.876;2023-03-20T07:47:01;103107.63;;;8.38;100.00
7309;BME280;3695;53.330;9.876;2023-03-20T07:49:28;103094.81;;;8.40;100.00
7309;BME280;3695;53.330;9.876;2023-03-20T07:51:55;103125.84;;;8.36;100.00
7309;BME280;3695;53.330;9.876;2023-03-20T07:54:22;103167.34;;;8.44;100.00
7309;BME280;3695;53.330;9.876;2023-03-20T07:56:48;103109.88;;;8.42;100.00
7309;BME280;3695;53.330;9.876;2023-03-20T07:59:16;103118.97;;;8.51;100.00
7309;BME280;3695;53.330;9.876;2023-03-20T08:01:42;103092.28;;;8.38;100.00
7309;BME280;3695;53.330;9.876;2023-03-20T08:04:08;103132.38;;;8.43;100.00
7309;BME280;3695;53.330;9.876;2023-03-20T08:06:35;103088.56;;;8.30;100.00
7309;BME280;3695;53.330;9.876;2023-03-20T08:09:05;103186.69;;;8.59;100.00
7309;BME280;3695;53.330;9.876;2023-03-20T08:11:31;103109.63;;;8.36;100.00
7309;BME280;3695;53.330;9.876;2023-03-20T08:13:58;103131.81;;;8.30;100.00
7309;BME280;3695;53.330;9.876;2023-03-20T08:16:24;103209.75;;;8.44;100.00
7309;BME280;3695;53.330;9.876;2023-03-20T08:18:51;103161.38;;;8.41;100.00
7309;BME280;3695;53.330;9.876;2023-03-20T08:21:20;103221.13;;;8.57;100.00
7309;BME280;3695;53.330;9.876;2023-03-20T08:23:46;103209.56;;;8.65;100.00
7309;BME280;3695;53.330;9.876;2023-03-20T08:26:14;103204.91;;;8.57;100.00
7309;BME280;3695;53.330;9.876;2023-03-20T08:28:40;103170.50;;;8.40;100.00
7309;BME280;3695;53.330;9.876;2023-03-20T08:31:07;103242.88;;;8.46;100.00
7309;BME280;3695;53.330;9.876;2023-03-20T08:33:34;103286.28;;;8.64;100.00
7309;BME280;3695;53.330;9.876;2023-03-20T08:36:01;103242.03;;;8.45;100.00
7309;BME280;3695;53.330;9.876;2023-03-20T08:38:28;103200.78;;;8.53;100.00
7309;BME280;3695;53.330;9.876;2023-03-20T08:40:54;103251.41;;;8.41;100.00
7309;BME280;3695;53.330;9.876;2023-03-20T08:43:22;103287.28;;;8.53;100.00
7309;BME280;3695;53.330;9.876;2023-03-20T08:45:48;103304.91;;;8.57;100.00
7309;BME280;3695;53.330;9.876;2023-03-20T08:48:15;103256.97;;;8.49;100.00
7309;BME280;3695;53.330;9.876;2023-03-20T08:50:41;103324.25;;;8.62;100.00
7309;BME280;3695;53.330;9.876;2023-03-20T08:53:09;103226.66;;;8.46;100.00
7309;BME280;3695;53.330;9.876;2023-03-20T08:55:35;103348.59;;;8.72;100.00
7309;BME280;3695;53.330;9.876;2023-03-20T08:58:02;103295.38;;;8.72;100.00
7309;BME280;3695;53.330;9.876;2023-03-20T09:00:29;103269.47;;;8.70;100.00
7309;BME280;3695;53.330;9.876;2023-03-20T09:02:56;103261.19;;;8.81;100.00
7309;BME280;3695;53.330;9.876;2023-03-20T09:05:22;103211.41;;;8.74;100.00
7309;BME280;3695;53.330;9.876;2023-03-20T09:07:49;103273.56;;;8.83;100.00
7309;BME280;3695;53.330;9.876;2023-03-20T09:10:16;103200.44;;;8.75;100.00
7309;BME280;3695;53.330;9.876;2023-03-20T09:12:42;103167.84;;;8.77;100.00
7309;BME280;3695;53.330;9.876;2023-03-20T09:15:09;103219.88;;;8.89;100.00
7309;BME280;3695;53.330;9.876;2023-03-20T09:17:37;103215.44;;;8.97;100.00
7309;BME280;3695;53.330;9.876;2023-03-20T09:20:05;103160.41;;;8.79;100.00
7309;BME280;3695;53.330;9.876;2023-03-20T09:22:32;103197.09;;;8.91;100.00
7309;BME280;3695;53.330;9.876;2023-03-20T09:24:58;103127.81;;;8.80;100.00
7309;BME280;3695;53.330;9.876;2023-03-20T09:27:25;103055.56;;;8.73;100.00
7309;BME280;3695;53.330;9.876;2023-03-20T09:29:51;103015.47;;;8.68;100.00
7309;BME280;3695;53.330;9.876;2023-03-20T09:32:18;103118.25;;;8.86;100.00
7309;BME280;3695;53.330;9.876;2023-03-20T09:34:46;103097.47;;;8.87;100.00
7309;BME280;3695;53.330;9.876;2023-03-20T09:37:12;103062.72;;;8.92;100.00
7309;BME280;3695;53.330;9.876;2023-03-20T09:39:38;102879.59;;;8.66;100.00
7309;BME280;3695;53.330;9.876;2023-03-20T09:42:16;102966.41;;;8.63;100.00
7309;BME280;3695;53.330;9.876;2023-03-20T09:44:53;102991.50;;;8.56;100.00
7309;BME280;3695;53.330;9.876;2023-03-20T09:47:27;102884.47;;;8.63;100.00
7309;BME280;3695;53.330;9.876;2023-03-20T09:50:06;102811.00;;;8.67;100.00
7309;BME280;3695;53.330;9.876;2023-03-20T09:52:37;102722.81;;;8.66;100.00
7309;BME280;3695;53.330;9.876;2023-03-20T09:55:12;102709.56;;;8.81;100.00
7309;BME280;3695;53.330;9.876;2023-03-20T09:57:40;102612.63;;;8.60;100.00
7309;BME280;3695;53.330;9.876;2023-03-20T10:00:12;102749.31;;;8.63;100.00
7309;BME280;3695;53.330;9.876;2023-03-20T10:02:46;102829.97;;;8.93;100.00
7309;BME280;3695;53.330;9.876;2023-03-20T10:05:18;102735.09;;;8.87;100.00
7309;BME280;3695;53.330;9.876;2023-03-20T10:07:46;102717.25;;;8.68;100.00
7309;BME280;3695;53.330;9.876;2023-03-20T10:10:13;102853.66;;;8.73;100.00
7309;BME280;3695;53.330;9.876;2023-03-20T10:12:47;102921.38;;;8.72;100.00
7309;BME280;3695;53.330;9.876;2023-03-20T10:15:20;102905.72;;;8.75;100.00
7309;BME280;3695;53.330;9.876;2023-03-20T10:18:00;102821.50;;;8.70;100.00
7309;BME280;3695;53.330;9.876;2023-03-20T10:20:34;103021.13;;;8.93;100.00
7309;BME280;3695;53.330;9.876;2023-03-20T10:23:05;103012.22;;;9.10;100.00
7309;BME280;3695;53.330;9.876;2023-03-20T10:25:34;102992.03;;;9.04;100.00
7309;BME280;3695;53.330;9.876;2023-03-20T10:28:05;102938.84;;;8.95;100.00
7309;BME280;3695;53.330;9.876;2023-03-20T10:30:47;102965.53;;;9.08;100.00
7309;BME280;3695;53.330;9.876;2023-03-20T10:33:25;102970.63;;;9.11;100.00
7309;BME280;3695;53.330;9.876;2023-03-20T10:36:07;103026.25;;;9.31;100.00
7309;BME280;3695;53.330;9.876;2023-03-20T10:38:40;102849.41;;;9.14;100.00
7309;BME280;3695;53.330;9.876;2023-03-20T10:41:12;102987.75;;;9.37;100.00
7309;BME280;3695;53.330;9.876;2023-03-20T10:43:41;102877.06;;;9.26;100.00
7309;BME280;3695;53.330;9.876;2023-03-20T10:46:10;102785.38;;;9.23;100.00
7309;BME280;3695;53.330;9.876;2023-03-20T10:48:43;102908.94;;;9.40;100.00
7309;BME280;3695;53.330;9.876;2023-03-20T10:51:13;102717.56;;;9.25;100.00
7309;BME280;3695;53.330;9.876;2023-03-20T10:53:45;102931.59;;;9.39;100.00
7309;BME280;3695;53.330;9.876;2023-03-20T10:56:15;102922.16;;;9.43;100.00
7309;BME280;3695;53.330;9.876;2023-03-20T10:58:47;102857.53;;;9.40;100.00
7309;BME280;3695;53.330;9.876;2023-03-20T11:01:16;102874.06;;;9.37;100.00
7309;BME280;3695;53.330;9.876;2023-03-20T11:03:44;102763.59;;;9.33;100.00
7309;BME280;3695;53.330;9.876;2023-03-20T11:06:17;102784.72;;;9.29;100.00
7309;BME280;3695;53.330;9.876;2023-03-20T11:08:47;102808.13;;;9.38;100.00
7309;BME280;3695;53.330;9.876;2023-03-20T11:11:21;102917.88;;;9.59;100.00
7309;BME280;3695;53.330;9.876;2023-03-20T11:13:48;102842.44;;;9.64;100.00
7309;BME280;3695;53.330;9.876;2023-03-20T11:16:18;102817.38;;;9.62;100.00
7309;BME280;3695;53.330;9.876;2023-03-20T11:18:45;102716.44;;;9.43;100.00
7309;BME280;3695;53.330;9.876;2023-03-20T11:21:18;102683.59;;;9.30;100.00
7309;BME280;3695;53.330;9.876;2023-03-20T11:23:45;102754.34;;;9.43;100.00
7309;BME280;3695;53.330;9.876;2023-03-20T11:26:13;102642.31;;;9.28;100.00
7309;BME280;3695;53.330;9.876;2023-03-20T11:28:46;102595.81;;;9.25;100.00
7309;BME280;3695;53.330;9.876;2023-03-20T11:31:19;102801.03;;;9.45;100.00
7309;BME280;3695;53.330;9.876;2023-03-20T11:33:50;102785.69;;;9.46;100.00
7309;BME280;3695;53.330;9.876;2023-03-20T11:36:24;102779.81;;;9.59;100.00
7309;BME280;3695;53.330;9.876;2023-03-20T11:38:52;102714.84;;;9.59;100.00
7309;BME280;3695;53.330;9.876;2023-03-20T11:41:23;102716.19;;;9.63;100.00
7309;BME280;3695;53.330;9.876;2023-03-20T11:43:51;102738.38;;;9.66;100.00
7309;BME280;3695;53.330;9.876;2023-03-20T11:46:18;102703.31;;;9.57;100.00
7309;BME280;3695;53.330;9.876;2023-03-20T11:49:01;102805.28;;;9.90;100.00
7309;BME280;3695;53.330;9.876;2023-03-20T11:51:30;102746.38;;;9.84;100.00
7309;BME280;3695;53.330;9.876;2023-03-20T11:54:00;102810.78;;;10.06;100.00
7309;BME280;3695;53.330;9.876;2023-03-20T11:56:28;102807.41;;;10.13;100.00
7309;BME280;3695;53.330;9.876;2023-03-20T11:58:59;102739.50;;;10.06;100.00
7309;BME280;3695;53.330;9.876;2023-03-20T12:01:28;102544.09;;;9.93;100.00
7309;BME280;3695;53.330;9.876;2023-03-20T12:04:01;102711.38;;;10.07;100.00
7309;BME280;3695;53.330;9.876;2023-03-20T12:06:41;102670.06;;;10.05;100.00
7309;BME280;3695;53.330;9.876;2023-03-20T12:09:19;102590.31;;;9.91;100.00
7309;BME280;3695;53.330;9.876;2023-03-20T12:11:52;102634.34;;;9.93;100.00
7309;BME280;3695;53.330;9.876;2023-03-20T12:14:28;102705.78;;;10.00;100.00
7309;BME280;3695;53.330;9.876;2023-03-20T12:17:09;102617.75;;;10.04;100.00
7309;BME280;3695;53.330;9.876;2023-03-20T12:19:39;102670.75;;;10.15;100.00
7309;BME280;3695;53.330;9.876;2023-03-20T12:22:20;102548.84;;;9.99;100.00
7309;BME280;3695;53.330;9.876;2023-03-20T12:24:54;102660.41;;;10.10;100.00
7309;BME280;3695;53.330;9.876;2023-03-20T12:27:24;102643.31;;;10.10;100.00
7309;BME280;3695;53.330;9.876;2023-03-20T12:29:57;102666.16;;;10.16;100.00
7309;BME280;3695;53.330;9.876;2023-03-20T12:32:28;102720.91;;;10.27;100.00
7309;BME280;3695;53.330;9.876;2023-03-20T12:35:01;102559.28;;;10.34;100.00
7309;BME280;3695;53.330;9.876;2023-03-20T12:37:31;102670.94;;;10.30;100.00
7309;BME280;3695;53.330;9.876;2023-03-20T12:40:00;102633.34;;;10.27;100.00
7309;BME280;3695;53.330;9.876;2023-03-20T12:42:38;102776.31;;;10.57;100.00
7309;BME280;3695;53.330;9.876;2023-03-20T12:45:11;102614.13;;;10.61;100.00
7309;BME280;3695;53.330;9.876;2023-03-20T12:48:01;102377.25;;;10.23;100.00
7309;BME280;3695;53.330;9.876;2023-03-20T12:50:32;102433.81;;;10.18;100.00
7309;BME280;3695;53.330;9.876;2023-03-20T12:53:22;102662.13;;;10.44;100.00
7309;BME280;3695;53.330;9.876;2023-03-20T12:56:00;102552.69;;;10.37;100.00
7309;BME280;3695;53.330;9.876;2023-03-20T12:58:36;102409.41;;;10.26;100.00
7309;BME280;3695;53.330;9.876;2023-03-20T13:01:08;102630.59;;;10.51;100.00
7309;BME280;3695;53.330;9.876;2023-03-20T13:03:50;102590.91;;;10.66;100.00
7309;BME280;3695;53.330;9.876;2023-03-20T13:06:26;102728.34;;;10.74;100.00
7309;BME280;3695;53.330;9.876;2023-03-20T13:09:14;102631.06;;;10.71;100.00
7309;BME280;3695;53.330;9.876;2023-03-20T13:11:50;102661.66;;;10.88;100.00
7309;BME280;3695;53.330;9.876;2023-03-20T13:14:28;102485.66;;;10.62;100.00
7309;BME280;3695;53.330;9.876;2023-03-20T13:17:01;102636.28;;;10.81;100.00
7309;BME280;3695;53.330;9.876;2023-03-20T13:19:35;102545.75;;;10.82;100.00
7309;BME280;3695;53.330;9.876;2023-03-20T13:22:06;102438.19;;;10.66;100.00
7309;BME280;3695;53.330;9.876;2023-03-20T13:24:40;102186.84;;;10.29;100.00
7309;BME280;3695;53.330;9.876;2023-03-20T13:27:21;102442.81;;;10.57;100.00